Terminal Aerodrome Forecast
Issued by NWS Lake Charles, LA

Home | Current Version | Previous Version | Text Only | Print | Product List | Glossary On
Versions: 1 2 3 4 5 6 7 8 9 10 11 12 13 14 15 16 17 18
800
FTUS44 KLCH 202334
TAFAEX
TAF
KAEX 202334Z 2100/2124 17005KT P6SM SCT250
     FM210300 17004KT P6SM VCTS BKN007CB OVC025
      TEMPO 2104/2108 1SM -TSRA OVC007CB
     FM210900 18003KT 2SM BR OVC004
     FM211500 21007KT P6SM SCT007 BKN015=

USA.gov is the U.S. government's official web portal to all federal, state and local government web resources and services.